Time;durP1;ratioP1;P1;durP2;ratioP2;P2;SDS_P1;SDS_P2;PMS_P1;PMS_P2;Temp;Humidity;BMP_temperature;BMP_pressure;BME280_temperature;BME280_humidity;BME280_pressure;Samples;Min_cycle;Max_cycle;Signal;HPM_P1;HPM_P2
2023/11/22 00:00:20;;;;;;;56.07;2.60;;;;;;;;;;5053228;28;20460;-72
2023/11/22 00:02:48;;;;;;;56.40;2.80;;;;;;;;;;5052492;28;20982;-72
2023/11/22 00:05:15;;;;;;;55.77;2.50;;;;;;;;;;5052774;28;20466;-72
2023/11/22 00:07:43;;;;;;;55.80;2.60;;;;;;;;;;5052727;28;20456;-72
2023/11/22 00:10:10;;;;;;;55.80;2.63;;;;;;;;;;5052720;28;20995;-72
2023/11/22 00:12:38;;;;;;;56.53;2.70;;;;;;;;;;5052912;28;20475;-72
2023/11/22 00:15:07;;;;;;;55.70;2.37;;;;;;;;;;5052675;28;20454;-72
2023/11/22 00:17:34;;;;;;;56.03;2.60;;;;;;;;;;5052783;28;20457;-72
2023/11/22 00:20:05;;;;;;;55.90;2.40;;;;;;;;;;5052317;28;20442;-72
2023/11/22 00:22:32;;;;;;;55.80;2.50;;;;;;;;;;5052789;28;20466;-71
2023/11/22 00:25:01;;;;;;;55.83;2.60;;;;;;;;;;5052705;28;20540;-71
2023/11/22 00:27:29;;;;;;;56.10;2.60;;;;;;;;;;5052857;28;20553;-71
2023/11/22 00:29:57;;;;;;;55.97;2.77;;;;;;;;;;5052287;28;20486;-71
2023/11/22 00:32:25;;;;;;;56.00;2.60;;;;;;;;;;5052892;28;20481;-71
2023/11/22 00:34:52;;;;;;;55.87;2.60;;;;;;;;;;5052338;28;20451;-71
2023/11/22 00:37:19;;;;;;;56.10;2.60;;;;;;;;;;5052384;28;20573;-71
2023/11/22 00:39:47;;;;;;;56.10;2.33;;;;;;;;;;5052285;28;20485;-71
2023/11/22 00:42:14;;;;;;;55.77;2.50;;;;;;;;;;5052692;28;20481;-71
2023/11/22 00:44:41;;;;;;;56.23;2.73;;;;;;;;;;5052492;28;20450;-71
2023/11/22 00:47:08;;;;;;;56.10;2.60;;;;;;;;;;5052484;28;20471;-71
2023/11/22 00:49:36;;;;;;;56.17;2.70;;;;;;;;;;5051749;28;20586;-71
2023/11/22 00:52:03;;;;;;;55.97;2.90;;;;;;;;;;5052880;28;20527;-71
2023/11/22 00:54:30;;;;;;;56.27;2.70;;;;;;;;;;5051974;28;20452;-71
2023/11/22 00:56:58;;;;;;;56.00;2.60;;;;;;;;;;5052131;28;20467;-71
2023/11/22 00:59:26;;;;;;;56.07;2.60;;;;;;;;;;5051904;28;20454;-71
2023/11/22 01:01:53;;;;;;;56.10;2.50;;;;;;;;;;5051821;28;20544;-71
2023/11/22 01:04:20;;;;;;;56.67;3.73;;;;;;;;;;5051465;28;20460;-71
2023/11/22 01:06:49;;;;;;;56.80;2.73;;;;;;;;;;5051567;28;20457;-72
2023/11/22 01:09:16;;;;;;;56.20;3.10;;;;;;;;;;5051801;28;20508;-72
2023/11/22 01:11:45;;;;;;;56.07;2.40;;;;;;;;;;5051787;28;20547;-71
2023/11/22 01:14:12;;;;;;;56.03;2.33;;;;;;;;;;5051902;28;20471;-71
2023/11/22 01:16:39;;;;;;;55.90;2.30;;;;;;;;;;5051823;28;20450;-71
2023/11/22 01:19:06;;;;;;;55.97;2.33;;;;;;;;;;5050959;28;20449;-71
2023/11/22 01:21:33;;;;;;;56.20;3.00;;;;;;;;;;5051489;28;20473;-71
2023/11/22 01:24:02;;;;;;;56.20;2.80;;;;;;;;;;5051827;28;20461;-71
2023/11/22 01:26:30;;;;;;;55.77;2.40;;;;;;;;;;5051424;28;20450;-70
2023/11/22 01:28:58;;;;;;;57.80;3.30;;;;;;;;;;5051417;28;20489;-71
2023/11/22 01:31:27;;;;;;;56.77;2.60;;;;;;;;;;5051419;28;20477;-71
2023/11/22 01:33:54;;;;;;;56.07;2.90;;;;;;;;;;5050988;28;20455;-71
2023/11/22 01:36:21;;;;;;;56.07;2.70;;;;;;;;;;5051458;28;20453;-71
2023/11/22 01:38:49;;;;;;;56.07;2.50;;;;;;;;;;5051376;28;20448;-71
2023/11/22 01:41:17;;;;;;;56.10;2.90;;;;;;;;;;5051497;28;20477;-71
2023/11/22 01:43:44;;;;;;;57.23;3.40;;;;;;;;;;5051103;28;20833;-71
2023/11/22 01:46:16;;;;;;;56.00;2.60;;;;;;;;;;5051240;28;20457;-71
2023/11/22 01:48:44;;;;;;;56.17;2.40;;;;;;;;;;5050816;28;20447;-71
2023/11/22 01:51:11;;;;;;;56.10;2.53;;;;;;;;;;5051195;28;21019;-71
2023/11/22 01:53:38;;;;;;;55.90;2.83;;;;;;;;;;5051122;28;20444;-70
2023/11/22 01:56:05;;;;;;;56.00;2.77;;;;;;;;;;5051074;28;20446;-70
2023/11/22 01:58:34;;;;;;;56.10;2.50;;;;;;;;;;5050685;28;20454;-70
2023/11/22 02:01:02;;;;;;;55.77;2.57;;;;;;;;;;5051233;28;20477;-70
2023/11/22 02:03:30;;;;;;;57.07;3.70;;;;;;;;;;5050647;28;20832;-70
2023/11/22 02:05:57;;;;;;;56.17;2.73;;;;;;;;;;5050974;28;20537;-71
2023/11/22 02:08:25;;;;;;;56.13;2.50;;;;;;;;;;5050954;28;20450;-71
2023/11/22 02:10:59;;;;;;;56.03;2.90;;;;;;;;;;5050329;28;20489;-71
2023/11/22 02:13:26;;;;;;;55.77;2.47;;;;;;;;;;5050569;28;21068;-71
2023/11/22 02:15:56;;;;;;;55.87;2.50;;;;;;;;;;5050806;28;20545;-71
2023/11/22 02:18:24;;;;;;;56.00;2.50;;;;;;;;;;5050504;28;20458;-71
2023/11/22 02:20:51;;;;;;;56.30;3.20;;;;;;;;;;5050704;28;20435;-71
2023/11/22 02:23:19;;;;;;;55.93;2.50;;;;;;;;;;5050622;28;20453;-71
2023/11/22 02:25:46;;;;;;;55.97;2.60;;;;;;;;;;5050378;28;20457;-71
2023/11/22 02:28:14;;;;;;;55.90;2.43;;;;;;;;;;5050711;28;20443;-71
2023/11/22 02:30:41;;;;;;;55.90;2.80;;;;;;;;;;5050411;28;21045;-71
2023/11/22 02:33:08;;;;;;;55.80;2.37;;;;;;;;;;5050503;28;20798;-71
2023/11/22 02:35:35;;;;;;;56.07;2.97;;;;;;;;;;5050504;28;20458;-71
2023/11/22 02:38:03;;;;;;;56.20;3.00;;;;;;;;;;5050690;28;20445;-71
2023/11/22 02:40:31;;;;;;;55.90;2.40;;;;;;;;;;5050761;28;20448;-71
2023/11/22 02:43:00;;;;;;;56.10;2.77;;;;;;;;;;5050474;28;20472;-71
2023/11/22 02:45:28;;;;;;;55.80;2.40;;;;;;;;;;5050732;28;20461;-71
2023/11/22 02:47:56;;;;;;;55.87;2.37;;;;;;;;;;5050465;28;20504;-71
2023/11/22 02:50:23;;;;;;;55.57;2.20;;;;;;;;;;5049745;28;20492;-71
2023/11/22 02:52:50;;;;;;;57.20;4.40;;;;;;;;;;5050615;28;20462;-71
2023/11/22 02:55:17;;;;;;;56.03;2.33;;;;;;;;;;5050637;28;20456;-71
2023/11/22 02:57:45;;;;;;;55.70;2.27;;;;;;;;;;5050327;28;20445;-71
2023/11/22 03:00:14;;;;;;;55.87;2.77;;;;;;;;;;5050635;28;20450;-72
2023/11/22 03:02:41;;;;;;;56.17;2.87;;;;;;;;;;5049645;28;20474;-71
2023/11/22 03:05:09;;;;;;;56.30;3.10;;;;;;;;;;5050397;28;20449;-71
2023/11/22 03:07:36;;;;;;;56.70;3.33;;;;;;;;;;5049971;28;20454;-71
2023/11/22 03:10:03;;;;;;;56.20;2.80;;;;;;;;;;5049700;28;20989;-71
2023/11/22 03:12:30;;;;;;;56.10;2.70;;;;;;;;;;5049999;28;20227;-71
2023/11/22 03:15:01;;;;;;;56.17;2.90;;;;;;;;;;5049690;28;20955;-71
2023/11/22 03:17:29;;;;;;;56.40;3.33;;;;;;;;;;5049727;28;20457;-71
2023/11/22 03:19:56;;;;;;;56.00;2.83;;;;;;;;;;5050104;28;20949;-71
2023/11/22 03:22:24;;;;;;;56.20;2.60;;;;;;;;;;5050411;28;20470;-71
2023/11/22 03:24:52;;;;;;;56.07;2.80;;;;;;;;;;5050294;28;20438;-71
2023/11/22 03:27:21;;;;;;;55.93;3.03;;;;;;;;;;5054047;28;20481;-71
2023/11/22 03:29:48;;;;;;;55.77;2.60;;;;;;;;;;5053597;28;20492;-71
2023/11/22 03:32:17;;;;;;;55.97;2.67;;;;;;;;;;5053973;28;20978;-71
2023/11/22 03:34:44;;;;;;;55.90;2.50;;;;;;;;;;5053381;28;20453;-71
2023/11/22 03:37:11;;;;;;;57.27;3.40;;;;;;;;;;5053903;28;20465;-71
2023/11/22 03:39:38;;;;;;;56.23;2.70;;;;;;;;;;5053412;28;20485;-71
2023/11/22 03:42:05;;;;;;;56.20;2.93;;;;;;;;;;5053841;28;20497;-71
2023/11/22 03:44:33;;;;;;;56.00;2.87;;;;;;;;;;5053215;28;20457;-71
2023/11/22 03:47:00;;;;;;;55.97;2.80;;;;;;;;;;5052808;28;20821;-71
2023/11/22 03:49:28;;;;;;;55.87;2.60;;;;;;;;;;5052610;28;20860;-71
2023/11/22 03:51:55;;;;;;;55.87;2.40;;;;;;;;;;5053352;28;20473;-71
2023/11/22 03:54:22;;;;;;;56.27;3.23;;;;;;;;;;5052920;28;20449;-71
2023/11/22 03:56:50;;;;;;;55.93;2.60;;;;;;;;;;5052648;28;20977;-71
2023/11/22 03:59:18;;;;;;;55.67;2.33;;;;;;;;;;5053729;28;20453;-71
2023/11/22 04:01:45;;;;;;;55.93;2.70;;;;;;;;;;5052702;28;20474;-71
2023/11/22 04:04:12;;;;;;;56.30;2.87;;;;;;;;;;5052413;28;20587;-71
2023/11/22 04:06:41;;;;;;;56.07;2.77;;;;;;;;;;5053088;28;20452;-71
2023/11/22 04:09:12;;;;;;;56.80;2.90;;;;;;;;;;5052948;28;20465;-71
2023/11/22 04:11:38;;;;;;;56.03;2.73;;;;;;;;;;5052738;28;20812;-71
2023/11/22 04:14:05;;;;;;;56.10;3.03;;;;;;;;;;5053019;28;20453;-71
2023/11/22 04:16:32;;;;;;;56.07;2.73;;;;;;;;;;5052599;28;20457;-71
2023/11/22 04:18:59;;;;;;;55.77;2.50;;;;;;;;;;5052110;28;20452;-71
2023/11/22 04:21:26;;;;;;;56.47;2.63;;;;;;;;;;5052364;28;20876;-72
2023/11/22 04:23:55;;;;;;;56.33;2.70;;;;;;;;;;5051614;28;20231;-71
2023/11/22 04:26:24;;;;;;;56.03;3.10;;;;;;;;;;5051987;28;20489;-71
2023/11/22 04:28:51;;;;;;;55.90;2.28;;;;;;;;;;5052279;28;20457;-71
2023/11/22 04:31:18;;;;;;;56.30;2.93;;;;;;;;;;5052420;28;20345;-72
2023/11/22 04:33:46;;;;;;;55.97;2.50;;;;;;;;;;5051715;28;20450;-72
2023/11/22 04:36:13;;;;;;;56.00;2.70;;;;;;;;;;5051710;28;20448;-71
2023/11/22 04:38:40;;;;;;;55.97;2.83;;;;;;;;;;5052546;28;20452;-71
2023/11/22 04:41:08;;;;;;;56.93;2.53;;;;;;;;;;5052385;28;20222;-71
2023/11/22 04:43:36;;;;;;;56.10;2.63;;;;;;;;;;5052281;28;20451;-71
2023/11/22 04:46:04;;;;;;;55.97;2.80;;;;;;;;;;5051907;28;20580;-71
2023/11/22 04:48:31;;;;;;;56.30;2.50;;;;;;;;;;5051859;28;20941;-71
2023/11/22 04:50:58;;;;;;;56.07;2.80;;;;;;;;;;5051956;28;20567;-71
2023/11/22 04:53:25;;;;;;;56.28;2.80;;;;;;;;;;5052183;28;20457;-72
2023/11/22 04:55:52;;;;;;;56.50;2.88;;;;;;;;;;5051996;28;20658;-71
2023/11/22 04:58:21;;;;;;;56.20;3.00;;;;;;;;;;5051635;28;20668;-71
2023/11/22 05:00:48;;;;;;;56.00;2.50;;;;;;;;;;5051893;28;20457;-71
2023/11/22 05:03:15;;;;;;;56.17;3.30;;;;;;;;;;5051706;28;20517;-72
2023/11/22 05:05:42;;;;;;;56.10;2.90;;;;;;;;;;5052108;28;20446;-71
2023/11/22 05:08:09;;;;;;;55.85;2.50;;;;;;;;;;5052231;28;20449;-71
2023/11/22 05:10:36;;;;;;;56.20;2.70;;;;;;;;;;5051614;28;20379;-71
2023/11/22 05:13:05;;;;;;;56.20;3.10;;;;;;;;;;5051971;28;20211;-71
2023/11/22 05:15:33;;;;;;;56.05;2.45;;;;;;;;;;5051894;28;20470;-71
2023/11/22 05:18:01;;;;;;;55.97;2.50;;;;;;;;;;5051167;28;20252;-71
2023/11/22 05:20:28;;;;;;;55.67;2.60;;;;;;;;;;5051412;28;20454;-71
2023/11/22 05:22:55;;;;;;;56.03;2.70;;;;;;;;;;5051640;28;20461;-71
2023/11/22 05:25:22;;;;;;;55.77;2.50;;;;;;;;;;5051725;28;20450;-72
2023/11/22 05:27:50;;;;;;;55.90;2.70;;;;;;;;;;5050866;28;20452;-72
2023/11/22 05:30:17;;;;;;;55.90;2.60;;;;;;;;;;5051415;28;20494;-72
2023/11/22 05:32:46;;;;;;;55.97;2.50;;;;;;;;;;5051325;28;20480;-71
2023/11/22 05:35:13;;;;;;;55.80;2.63;;;;;;;;;;5051480;28;20448;-71
2023/11/22 05:37:40;;;;;;;55.88;2.40;;;;;;;;;;5051364;28;20465;-71
2023/11/22 05:40:09;;;;;;;55.93;2.60;;;;;;;;;;5051508;28;20203;-71
2023/11/22 05:42:37;;;;;;;56.03;3.07;;;;;;;;;;5051149;28;20828;-71
2023/11/22 05:45:05;;;;;;;55.97;2.70;;;;;;;;;;5051015;28;20465;-71
2023/11/22 05:47:32;;;;;;;56.00;2.50;;;;;;;;;;5050784;28;20460;-71
2023/11/22 05:50:01;;;;;;;55.90;2.40;;;;;;;;;;5050812;28;20227;-71
2023/11/22 05:52:28;;;;;;;56.03;2.87;;;;;;;;;;5051281;28;20474;-71
2023/11/22 05:54:56;;;;;;;55.73;2.60;;;;;;;;;;5050969;28;20972;-71
2023/11/22 05:57:23;;;;;;;57.40;3.03;;;;;;;;;;5050898;28;20942;-71
2023/11/22 05:59:50;;;;;;;56.30;2.87;;;;;;;;;;5051190;28;20844;-71
2023/11/22 06:02:17;;;;;;;56.10;3.00;;;;;;;;;;5051444;28;20488;-71
2023/11/22 06:04:44;;;;;;;56.60;2.67;;;;;;;;;;5051164;28;20794;-71
2023/11/22 06:07:13;;;;;;;55.90;2.70;;;;;;;;;;5051124;28;20449;-72
2023/11/22 06:09:40;;;;;;;57.03;3.17;;;;;;;;;;5050748;28;21007;-71
2023/11/22 06:12:07;;;;;;;56.20;3.07;;;;;;;;;;5050735;28;20850;-71
2023/11/22 06:14:34;;;;;;;56.03;2.83;;;;;;;;;;5050926;28;20537;-71
2023/11/22 06:17:03;;;;;;;55.80;2.30;;;;;;;;;;5050892;28;20445;-71
2023/11/22 06:19:30;;;;;;;56.13;2.63;;;;;;;;;;5050680;28;20456;-71
2023/11/22 06:21:57;;;;;;;55.73;2.63;;;;;;;;;;5050871;28;20469;-71
2023/11/22 06:24:26;;;;;;;56.10;2.77;;;;;;;;;;5050923;28;20456;-71
2023/11/22 06:26:53;;;;;;;55.77;2.60;;;;;;;;;;5050658;28;20450;-71
2023/11/22 06:29:20;;;;;;;56.00;2.80;;;;;;;;;;5050665;28;20465;-71
2023/11/22 06:31:47;;;;;;;56.10;2.40;;;;;;;;;;5050524;28;20546;-71
2023/11/22 06:34:15;;;;;;;56.13;2.67;;;;;;;;;;5050788;28;20806;-71
2023/11/22 06:36:42;;;;;;;55.90;2.50;;;;;;;;;;5050486;28;20820;-71
2023/11/22 06:39:09;;;;;;;56.00;2.70;;;;;;;;;;5050491;28;20445;-71
2023/11/22 06:41:38;;;;;;;56.00;2.70;;;;;;;;;;5050907;28;20556;-71
2023/11/22 06:44:05;;;;;;;55.97;2.80;;;;;;;;;;5050728;28;20451;-71
2023/11/22 06:46:32;;;;;;;56.03;2.37;;;;;;;;;;5050771;28;20446;-72
2023/11/22 06:48:59;;;;;;;55.90;2.70;;;;;;;;;;5050676;28;20446;-72
2023/11/22 06:51:27;;;;;;;56.10;2.70;;;;;;;;;;5050776;28;20857;-72
2023/11/22 06:53:54;;;;;;;57.08;3.78;;;;;;;;;;5050500;28;20449;-72
2023/11/22 06:56:21;;;;;;;55.97;2.80;;;;;;;;;;5050946;28;20301;-72
2023/11/22 06:58:51;;;;;;;55.97;2.60;;;;;;;;;;5050836;28;20464;-72
2023/11/22 07:01:18;;;;;;;55.97;2.63;;;;;;;;;;5054976;28;20887;-72
2023/11/22 07:03:45;;;;;;;55.77;2.73;;;;;;;;;;5054600;28;20501;-72
2023/11/22 07:06:12;;;;;;;56.30;3.10;;;;;;;;;;5054470;28;20783;-71
2023/11/22 07:08:39;;;;;;;55.87;2.60;;;;;;;;;;5054410;28;20453;-71
2023/11/22 07:11:09;;;;;;;56.00;2.97;;;;;;;;;;5054422;28;20640;-71
2023/11/22 07:13:38;;;;;;;56.00;3.00;;;;;;;;;;5054496;28;20454;-71
2023/11/22 07:16:07;;;;;;;56.60;3.07;;;;;;;;;;5054080;28;20507;-71
2023/11/22 07:18:34;;;;;;;55.97;2.90;;;;;;;;;;5053896;28;20939;-71
2023/11/22 07:21:02;;;;;;;56.20;3.20;;;;;;;;;;5054018;28;20720;-72
2023/11/22 07:23:29;;;;;;;56.10;2.60;;;;;;;;;;5054438;28;20449;-71
2023/11/22 07:25:56;;;;;;;56.20;2.50;;;;;;;;;;5053999;28;20206;-71
2023/11/22 07:28:24;;;;;;;55.83;2.97;;;;;;;;;;5053919;28;20212;-72
2023/11/22 07:30:51;;;;;;;55.97;2.90;;;;;;;;;;5053748;28;20494;-72
2023/11/22 07:33:20;;;;;;;56.07;3.00;;;;;;;;;;5053997;28;20532;-71
2023/11/22 07:35:48;;;;;;;56.10;2.60;;;;;;;;;;5054072;28;20849;-72
2023/11/22 07:38:17;;;;;;;55.90;2.50;;;;;;;;;;5053862;28;20206;-71
2023/11/22 07:40:44;;;;;;;55.95;2.63;;;;;;;;;;5054289;28;20923;-71
2023/11/22 07:43:11;;;;;;;55.93;2.77;;;;;;;;;;5053828;28;20750;-71
2023/11/22 07:45:39;;;;;;;56.40;3.08;;;;;;;;;;5053666;28;20830;-72
2023/11/22 07:48:06;;;;;;;55.87;2.60;;;;;;;;;;5053724;28;20208;-71
2023/11/22 07:50:34;;;;;;;55.73;2.50;;;;;;;;;;5053758;28;20537;-71
2023/11/22 07:53:02;;;;;;;55.97;2.80;;;;;;;;;;5053766;28;20480;-71
2023/11/22 07:55:30;;;;;;;56.10;2.70;;;;;;;;;;5053533;28;20450;-71
2023/11/22 07:57:57;;;;;;;56.08;2.88;;;;;;;;;;5053567;28;20208;-71
2023/11/22 08:00:24;;;;;;;55.95;2.50;;;;;;;;;;5053362;28;20264;-71
2023/11/22 08:02:54;;;;;;;56.00;2.80;;;;;;;;;;5053439;28;20236;-71
2023/11/22 08:05:23;;;;;;;56.08;2.60;;;;;;;;;;5053235;28;21016;-71
2023/11/22 08:07:52;;;;;;;57.42;3.58;;;;;;;;;;5053398;28;20207;-71
2023/11/22 08:10:19;;;;;;;56.85;4.40;;;;;;;;;;5053258;28;20225;-71
2023/11/22 08:12:47;;;;;;;55.90;2.50;;;;;;;;;;5052227;28;20230;-71
2023/11/22 08:15:15;;;;;;;55.78;2.55;;;;;;;;;;5053112;28;20210;-71
2023/11/22 08:17:42;;;;;;;55.78;2.63;;;;;;;;;;5053369;28;20213;-71
2023/11/22 08:20:13;;;;;;;56.17;2.70;;;;;;;;;;5053250;28;20664;-71
2023/11/22 08:22:40;;;;;;;55.97;2.50;;;;;;;;;;5053294;28;20233;-71
2023/11/22 08:25:12;;;;;;;56.00;2.55;;;;;;;;;;5052745;28;20599;-71
2023/11/22 08:27:40;;;;;;;55.85;2.50;;;;;;;;;;5053147;28;20218;-71
2023/11/22 08:30:13;;;;;;;56.10;2.50;;;;;;;;;;5052851;28;20203;-72
2023/11/22 08:32:40;;;;;;;56.35;3.83;;;;;;;;;;5052922;28;20239;-71
2023/11/22 08:35:08;;;;;;;56.28;2.88;;;;;;;;;;5052773;28;20207;-71
2023/11/22 08:37:37;;;;;;;58.50;3.13;;;;;;;;;;5052701;28;20242;-71
2023/11/22 08:40:05;;;;;;;56.10;2.72;;;;;;;;;;5052356;28;20246;-71
2023/11/22 08:42:33;;;;;;;57.55;2.95;;;;;;;;;;5052828;28;20219;-72
2023/11/22 08:45:01;;;;;;;56.20;2.90;;;;;;;;;;5052186;28;20759;-72
2023/11/22 08:47:28;;;;;;;56.43;3.20;;;;;;;;;;5052491;28;20817;-73
2023/11/22 08:49:56;;;;;;;56.07;3.13;;;;;;;;;;5052579;28;20476;-72
2023/11/22 08:52:24;;;;;;;56.10;3.10;;;;;;;;;;5052189;28;20497;-72
2023/11/22 08:54:51;;;;;;;55.87;2.80;;;;;;;;;;5052572;28;20488;-72
2023/11/22 08:57:19;;;;;;;55.90;2.60;;;;;;;;;;5052565;28;20530;-72
2023/11/22 08:59:47;;;;;;;55.90;2.70;;;;;;;;;;5052335;28;20799;-72
2023/11/22 09:02:14;;;;;;;55.93;2.90;;;;;;;;;;5052033;28;20699;-72
2023/11/22 09:04:42;;;;;;;56.17;2.80;;;;;;;;;;5052030;28;20552;-72
2023/11/22 09:07:11;;;;;;;56.17;2.80;;;;;;;;;;5052005;28;20434;-72
2023/11/22 09:09:39;;;;;;;55.80;2.70;;;;;;;;;;5051949;28;20256;-72
2023/11/22 09:12:12;;;;;;;56.38;3.42;;;;;;;;;;5052141;28;20572;-72
2023/11/22 09:14:40;;;;;;;56.20;2.90;;;;;;;;;;5051923;28;20773;-73
2023/11/22 09:17:09;;;;;;;55.90;3.07;;;;;;;;;;5051970;28;20464;-72
2023/11/22 09:19:37;;;;;;;55.90;2.53;;;;;;;;;;5051956;28;20541;-73
2023/11/22 09:22:05;;;;;;;56.10;3.10;;;;;;;;;;5051721;28;20474;-72
2023/11/22 09:24:33;;;;;;;55.57;2.40;;;;;;;;;;5051130;28;20472;-73
2023/11/22 09:27:00;;;;;;;58.75;2.83;;;;;;;;;;5051986;28;20457;-70
2023/11/22 09:29:27;;;;;;;56.05;2.25;;;;;;;;;;5051597;28;20256;-71
2023/11/22 09:31:54;;;;;;;55.83;2.43;;;;;;;;;;5051365;28;20234;-71
2023/11/22 09:34:23;;;;;;;56.27;2.63;;;;;;;;;;5051581;28;20561;-72
2023/11/22 09:36:50;;;;;;;55.88;2.40;;;;;;;;;;5051676;28;20454;-71
2023/11/22 09:39:21;;;;;;;55.80;3.03;;;;;;;;;;5051509;28;20211;-72
2023/11/22 09:41:49;;;;;;;55.87;2.53;;;;;;;;;;5051343;28;20990;-71
2023/11/22 09:44:16;;;;;;;61.40;3.20;;;;;;;;;;5051393;28;20866;-72
2023/11/22 09:46:45;;;;;;;56.00;2.57;;;;;;;;;;5051441;28;20495;-71
2023/11/22 09:49:16;;;;;;;56.20;2.93;;;;;;;;;;5051121;28;20446;-72
2023/11/22 09:51:45;;;;;;;55.80;2.50;;;;;;;;;;5051376;28;20494;-72
2023/11/22 09:54:14;;;;;;;55.77;3.10;;;;;;;;;;5051233;28;20452;-72
2023/11/22 09:56:50;;;;;;;55.80;2.53;;;;;;;;;;5051283;28;20851;-72
2023/11/22 09:59:18;;;;;;;55.90;2.50;;;;;;;;;;5051281;28;20438;-72
2023/11/22 10:01:45;;;;;;;56.30;3.27;;;;;;;;;;5051488;28;20480;-72
2023/11/22 10:04:12;;;;;;;55.93;2.30;;;;;;;;;;5051195;28;20536;-72
2023/11/22 10:06:40;;;;;;;56.17;3.03;;;;;;;;;;5051164;28;20452;-72
2023/11/22 10:09:09;;;;;;;55.47;2.40;;;;;;;;;;5051007;28;20461;-72
2023/11/22 10:11:38;;;;;;;55.77;2.47;;;;;;;;;;5050973;28;21009;-72
2023/11/22 10:14:05;;;;;;;55.67;2.50;;;;;;;;;;5051232;28;20489;-72
2023/11/22 10:16:33;;;;;;;55.83;2.40;;;;;;;;;;5051411;28;20453;-72
2023/11/22 10:19:00;;;;;;;55.90;2.50;;;;;;;;;;5050910;28;20524;-71
2023/11/22 10:21:28;;;;;;;55.97;2.57;;;;;;;;;;5051244;28;20470;-72
2023/11/22 10:23:57;;;;;;;56.00;2.93;;;;;;;;;;5052367;28;20462;-73
2023/11/22 10:26:27;;;;;;;55.80;2.40;;;;;;;;;;5052519;28;20446;-72
2023/11/22 10:28:54;;;;;;;55.90;2.50;;;;;;;;;;5053169;28;20888;-71
2023/11/22 10:31:22;;;;;;;55.93;2.63;;;;;;;;;;5053302;28;20476;-72
2023/11/22 10:33:49;;;;;;;55.73;2.30;;;;;;;;;;5051612;28;20458;-72
2023/11/22 10:36:16;;;;;;;56.07;2.77;;;;;;;;;;5046925;28;20818;-72
2023/11/22 10:38:47;;;;;;;55.90;2.60;;;;;;;;;;5054810;28;20489;-72
2023/11/22 10:41:14;;;;;;;56.00;2.70;;;;;;;;;;5055335;28;20476;-72
2023/11/22 10:43:42;;;;;;;55.80;2.40;;;;;;;;;;5054886;28;20499;-72
2023/11/22 10:46:10;;;;;;;56.20;2.80;;;;;;;;;;5054881;28;20454;-72
2023/11/22 10:48:37;;;;;;;55.80;2.80;;;;;;;;;;5054760;28;20462;-72
2023/11/22 10:51:05;;;;;;;55.77;2.40;;;;;;;;;;5055279;28;20465;-71
2023/11/22 10:53:38;;;;;;;55.63;2.57;;;;;;;;;;5054627;28;20575;-72
2023/11/22 10:56:06;;;;;;;55.90;2.70;;;;;;;;;;5054772;28;20452;-72
2023/11/22 10:58:35;;;;;;;56.20;3.53;;;;;;;;;;5054471;28;20442;-72
2023/11/22 11:01:06;;;;;;;55.47;2.40;;;;;;;;;;5054344;28;20469;-71
2023/11/22 11:03:39;;;;;;;56.03;3.30;;;;;;;;;;5054877;28;20457;-71
2023/11/22 11:06:19;;;;;;;55.67;2.17;;;;;;;;;;5054481;28;20453;-71
2023/11/22 11:08:47;;;;;;;55.73;2.63;;;;;;;;;;5054740;28;20984;-71
2023/11/22 11:11:15;;;;;;;55.77;2.57;;;;;;;;;;5054613;28;20563;-71
2023/11/22 11:13:42;;;;;;;55.90;2.37;;;;;;;;;;5054381;28;20490;-72
2023/11/22 11:16:11;;;;;;;56.30;2.90;;;;;;;;;;5054124;28;20472;-71
2023/11/22 11:18:38;;;;;;;55.60;2.30;;;;;;;;;;5054440;28;20783;-72
2023/11/22 11:21:11;;;;;;;55.83;2.77;;;;;;;;;;5053988;28;21020;-72
2023/11/22 11:23:40;;;;;;;58.47;4.07;;;;;;;;;;5054159;28;20461;-72
2023/11/22 11:26:11;;;;;;;55.57;2.27;;;;;;;;;;5053780;28;20450;-73
2023/11/22 11:28:44;;;;;;;55.60;2.47;;;;;;;;;;5054156;28;20926;-72
2023/11/22 11:31:12;;;;;;;55.57;2.30;;;;;;;;;;5053850;28;20492;-73
2023/11/22 11:33:55;;;;;;;55.80;2.40;;;;;;;;;;5054017;28;20507;-72
2023/11/22 11:36:23;;;;;;;55.70;2.50;;;;;;;;;;5053456;28;20450;-72
2023/11/22 11:38:50;;;;;;;56.00;2.90;;;;;;;;;;5053303;28;20804;-72
2023/11/22 11:41:17;;;;;;;55.83;2.60;;;;;;;;;;5053656;28;20830;-72
2023/11/22 11:43:45;;;;;;;55.87;2.50;;;;;;;;;;5053070;28;20445;-72
2023/11/22 11:46:14;;;;;;;55.73;2.47;;;;;;;;;;5052385;28;20807;-72
2023/11/22 11:48:43;;;;;;;56.00;2.90;;;;;;;;;;5053695;28;20456;-73
2023/11/22 11:51:11;;;;;;;56.03;3.00;;;;;;;;;;5053081;28;20477;-72
2023/11/22 11:53:39;;;;;;;56.20;2.93;;;;;;;;;;5052938;28;20507;-72
2023/11/22 11:56:06;;;;;;;56.13;2.50;;;;;;;;;;5052072;28;20508;-72
2023/11/22 11:58:33;;;;;;;55.80;2.43;;;;;;;;;;5052061;28;20446;-72
2023/11/22 12:01:02;;;;;;;56.00;2.70;;;;;;;;;;5052335;28;20465;-72
2023/11/22 12:03:30;;;;;;;55.97;2.30;;;;;;;;;;5053373;28;20549;-72
2023/11/22 12:05:58;;;;;;;55.77;2.30;;;;;;;;;;5052841;28;20959;-72
2023/11/22 12:08:29;;;;;;;56.40;2.93;;;;;;;;;;5052955;28;20933;-72
2023/11/22 12:10:58;;;;;;;55.90;2.70;;;;;;;;;;5052143;28;20466;-72
2023/11/22 12:13:26;;;;;;;56.00;2.57;;;;;;;;;;5053263;28;20489;-72
2023/11/22 12:15:54;;;;;;;58.00;3.00;;;;;;;;;;5053305;28;20446;-72
2023/11/22 12:18:21;;;;;;;55.57;2.50;;;;;;;;;;5045052;28;20447;-72
2023/11/22 12:20:57;;;;;;;56.00;2.63;;;;;;;;;;5052889;28;20569;-72
2023/11/22 12:23:24;;;;;;;55.70;2.03;;;;;;;;;;5053226;28;20444;-72
2023/11/22 12:25:55;;;;;;;55.97;2.63;;;;;;;;;;5053362;28;20441;-72
2023/11/22 12:28:23;;;;;;;57.40;2.77;;;;;;;;;;5053143;28;20442;-73
2023/11/22 12:30:50;;;;;;;55.80;2.37;;;;;;;;;;5052852;28;21073;-72
2023/11/22 12:33:19;;;;;;;56.73;3.67;;;;;;;;;;5052541;28;20481;-72
2023/11/22 12:35:46;;;;;;;55.73;2.30;;;;;;;;;;5052893;28;20850;-72
2023/11/22 12:38:15;;;;;;;55.67;2.40;;;;;;;;;;5052798;28;20456;-72
2023/11/22 12:40:46;;;;;;;56.20;2.30;;;;;;;;;;5052563;28;20458;-72
2023/11/22 12:43:13;;;;;;;56.00;2.63;;;;;;;;;;5052652;28;20536;-72
2023/11/22 12:45:41;;;;;;;55.77;2.37;;;;;;;;;;5052506;28;20548;-73
2023/11/22 12:48:22;;;;;;;55.77;2.60;;;;;;;;;;5052543;28;20454;-72
2023/11/22 12:50:50;;;;;;;55.17;1.93;;;;;;;;;;5052460;28;20548;-72
2023/11/22 12:53:21;;;;;;;55.83;2.20;;;;;;;;;;5052277;28;20490;-72
2023/11/22 12:55:49;;;;;;;55.47;2.40;;;;;;;;;;5052538;28;20977;-73
2023/11/22 12:58:16;;;;;;;55.60;2.10;;;;;;;;;;5051806;28;20446;-72
2023/11/22 13:00:43;;;;;;;55.77;2.27;;;;;;;;;;5052667;28;20449;-72
2023/11/22 13:03:11;;;;;;;57.07;2.30;;;;;;;;;;5052042;28;20953;-72
2023/11/22 13:05:38;;;;;;;56.23;2.67;;;;;;;;;;5052358;28;20442;-72
2023/11/22 13:08:05;;;;;;;55.87;2.33;;;;;;;;;;5052206;28;20445;-72
2023/11/22 13:10:33;;;;;;;56.10;3.00;;;;;;;;;;5051903;28;20462;-73
2023/11/22 13:13:01;;;;;;;55.47;2.17;;;;;;;;;;5051474;28;20585;-72
2023/11/22 13:15:29;;;;;;;56.20;3.10;;;;;;;;;;5052025;28;20543;-73
2023/11/22 13:17:58;;;;;;;56.77;3.37;;;;;;;;;;5052096;28;20528;-72
2023/11/22 13:20:25;;;;;;;55.67;2.37;;;;;;;;;;5043740;28;20446;-72
2023/11/22 13:22:53;;;;;;;55.97;2.53;;;;;;;;;;5051655;28;20466;-72
2023/11/22 13:25:20;;;;;;;55.80;2.50;;;;;;;;;;5051753;28;20904;-72
2023/11/22 13:27:49;;;;;;;55.70;2.27;;;;;;;;;;5052167;28;20450;-73
2023/11/22 13:30:19;;;;;;;55.77;2.50;;;;;;;;;;5051839;28;20449;-72
2023/11/22 13:32:47;;;;;;;56.07;3.30;;;;;;;;;;5051505;28;20492;-72
2023/11/22 13:35:17;;;;;;;55.93;2.30;;;;;;;;;;5051537;28;20946;-72
2023/11/22 13:37:44;;;;;;;55.87;2.30;;;;;;;;;;5051417;28;20453;-72
2023/11/22 13:40:15;;;;;;;55.90;2.53;;;;;;;;;;5051863;28;20814;-72
2023/11/22 13:42:43;;;;;;;55.67;2.27;;;;;;;;;;5051542;28;20466;-72
2023/11/22 13:45:16;;;;;;;55.77;2.07;;;;;;;;;;5051521;28;20447;-72
2023/11/22 13:47:46;;;;;;;55.97;2.60;;;;;;;;;;5051560;28;20449;-73
2023/11/22 13:50:15;;;;;;;55.87;2.53;;;;;;;;;;5051658;28;20826;-72
2023/11/22 13:52:42;;;;;;;55.53;1.93;;;;;;;;;;5051258;28;20973;-73
2023/11/22 13:55:12;;;;;;;55.70;2.27;;;;;;;;;;5051357;28;20457;-73
2023/11/22 13:57:39;;;;;;;56.20;2.97;;;;;;;;;;5051492;28;20845;-73
2023/11/22 14:00:09;;;;;;;57.13;2.40;;;;;;;;;;5051124;28;20472;-72
2023/11/22 14:02:37;;;;;;;55.93;2.40;;;;;;;;;;5051639;28;20480;-73
2023/11/22 14:05:07;;;;;;;56.10;3.43;;;;;;;;;;5050946;28;20829;-73
2023/11/22 14:07:34;;;;;;;55.73;2.43;;;;;;;;;;5051513;28;20972;-73
2023/11/22 14:10:03;;;;;;;55.97;2.40;;;;;;;;;;5050074;28;20844;-73
2023/11/22 14:12:30;;;;;;;55.87;3.07;;;;;;;;;;5051201;28;20561;-73
2023/11/22 14:14:57;;;;;;;59.00;2.53;;;;;;;;;;5051034;28;20808;-72
2023/11/22 14:17:25;;;;;;;55.97;2.73;;;;;;;;;;5051011;28;20960;-72
2023/11/22 14:19:55;;;;;;;56.20;2.77;;;;;;;;;;5051090;28;20543;-73
2023/11/22 14:22:22;;;;;;;55.77;2.60;;;;;;;;;;5050935;28;20476;-73
2023/11/22 14:24:49;;;;;;;55.83;2.60;;;;;;;;;;5051086;28;20747;-73
2023/11/22 14:27:17;;;;;;;55.80;2.60;;;;;;;;;;5051158;28;20457;-73
2023/11/22 14:29:47;;;;;;;56.00;2.50;;;;;;;;;;5050836;28;20444;-72
2023/11/22 14:32:14;;;;;;;55.93;2.57;;;;;;;;;;5050945;28;20473;-73
2023/11/22 14:34:43;;;;;;;56.10;2.40;;;;;;;;;;5050625;28;20490;-73